Van Buren, Indiana
Current Conditions -  °F | °C
As of 2:55 AM on Saturday 20 Dec 2014 (Local Time) from KMZZ Reporting Station
Haze Haze  
Wind Chill: 28°   Ceiling: 3000
Heat Index: 28°   Visibility: 4mi
Dew Point: 28°   Wind: 0mph
Humidity: 98%   Direction: NA
Pressure: 30.28"   Gusts: NA
Location:  40.62°N, 85.5°W
Report Text: KMZZ 200755Z AUTO 00000KT 4SM BR OVC030 M02/M02 A3028 RMK AO2 T10201023
Loading
Personal Weather Stations






























Interactive Weather Map New forecast layout! Learn more

10-Day Weather Forecast

Advertisements
Track Severe Weather on mobile